Palermo, New York
Current Conditions -  °F | °C
As of 4:54 AM on Sunday 23 Nov 2014 (Local Time) from KFZY Reporting Station
Overcast Overcast  
Wind Chill: 39°   Ceiling: 2500
Heat Index: 43°   Visibility: 10mi
Dew Point: 39°   Wind: 7mph
Humidity: 86%   Direction: 210°SSW
Pressure: 30.02"   Gusts: NA
Location:  43.3608°N, 76.3536°W
Report Text: KFZY 230954Z AUTO 21006KT 10SM OVC025 06/04 A3002 RMK AO2 RAE0858 SLP170 P0000 T00610039
Loading
Personal Weather Stations






























Interactive Weather Map New forecast layout! Learn more

10-Day Weather Forecast

Advertisements
Track Severe Weather on mobile